createdAt,value
2018-03-31T00:01:04.198Z,11.30
2018-03-31T00:03:31.233Z,11.30
2018-03-31T00:05:58.300Z,11.40
2018-03-31T00:08:25.333Z,11.40
2018-03-31T00:10:53.160Z,11.40
2018-03-31T00:13:20.190Z,11.40
2018-03-31T00:15:47.327Z,11.30
2018-03-31T00:18:14.398Z,11.50
2018-03-31T00:20:41.428Z,11.50
2018-03-31T00:23:08.478Z,11.50
2018-03-31T00:25:35.497Z,11.50
2018-03-31T00:28:02.572Z,11.50
2018-03-31T00:30:29.603Z,11.60
2018-03-31T00:32:56.736Z,11.60
2018-03-31T00:35:23.784Z,11.70
2018-03-31T00:37:50.844Z,11.60
2018-03-31T00:40:17.923Z,11.50
2018-03-31T00:42:44.959Z,11.50
2018-03-31T00:45:12.020Z,11.50
2018-03-31T00:47:39.092Z,11.50
2018-03-31T00:50:06.137Z,11.50
2018-03-31T00:52:33.208Z,11.50
2018-03-31T00:55:00.275Z,11.60
2018-03-31T00:57:28.087Z,11.60
2018-03-31T00:59:55.134Z,11.60
2018-03-31T01:02:22.210Z,11.70
2018-03-31T01:04:50.458Z,11.70
2018-03-31T01:07:17.572Z,11.70
2018-03-31T01:09:44.646Z,11.60
2018-03-31T01:12:11.728Z,11.50
2018-03-31T01:14:38.790Z,11.40
2018-03-31T01:17:05.838Z,11.40
2018-03-31T01:19:33.680Z,11.30
2018-03-31T01:22:00.973Z,11.30
2018-03-31T01:24:28.047Z,11.30
2018-03-31T01:26:55.408Z,11.40
2018-03-31T01:29:22.461Z,11.50
2018-03-31T01:31:49.498Z,11.40
2018-03-31T01:34:16.568Z,11.30
2018-03-31T01:36:43.608Z,11.30
2018-03-31T01:39:10.656Z,11.20
2018-03-31T01:41:37.699Z,11.30
2018-03-31T01:44:04.755Z,11.40
2018-03-31T01:46:31.854Z,11.30
2018-03-31T01:48:58.911Z,11.20
2018-03-31T01:51:25.960Z,11.20
2018-03-31T01:53:53.015Z,11.20
2018-03-31T01:56:20.053Z,11.30
2018-03-31T01:58:47.128Z,11.30
2018-03-31T02:01:14.147Z,11.30
2018-03-31T02:03:41.303Z,11.30
2018-03-31T02:06:08.339Z,11.30
2018-03-31T02:08:35.417Z,11.30
2018-03-31T02:11:02.449Z,11.30
2018-03-31T02:13:29.498Z,11.20
2018-03-31T02:15:56.553Z,11.20
2018-03-31T02:18:23.595Z,11.20
2018-03-31T02:20:50.671Z,11.10
2018-03-31T02:23:17.723Z,11.30
2018-03-31T02:25:44.783Z,11.20
2018-03-31T02:28:11.850Z,11.10
2018-03-31T02:30:38.867Z,11.20
2018-03-31T02:33:05.926Z,11.20
2018-03-31T02:35:32.991Z,11.20
2018-03-31T02:38:00.039Z,11.20
2018-03-31T02:40:27.892Z,11.20
2018-03-31T02:42:54.928Z,11.20
2018-03-31T02:45:21.975Z,11.30
2018-03-31T02:47:49.060Z,11.20
2018-03-31T02:50:16.191Z,11.20
2018-03-31T02:52:43.219Z,11.20
2018-03-31T02:55:10.406Z,11.20
2018-03-31T02:57:37.451Z,11.20
2018-03-31T03:00:05.251Z,11.20
2018-03-31T03:02:32.354Z,11.20
2018-03-31T03:04:59.388Z,11.20
2018-03-31T03:07:26.525Z,11.20
2018-03-31T03:09:53.547Z,11.10
2018-03-31T03:12:20.713Z,11.10
2018-03-31T03:14:47.755Z,11.10
2018-03-31T03:17:14.863Z,11.10
2018-03-31T03:19:41.915Z,11.10
2018-03-31T03:22:09.739Z,11.20
2018-03-31T03:24:36.823Z,11.20
2018-03-31T03:27:03.863Z,11.20
2018-03-31T03:29:30.924Z,11.20
2018-03-31T03:31:58.001Z,11.30
2018-03-31T03:34:25.112Z,11.20
2018-03-31T03:36:52.226Z,11.10
2018-03-31T03:39:19.261Z,11.10
2018-03-31T03:41:46.304Z,11.10
2018-03-31T03:44:13.443Z,11.10
2018-03-31T03:46:40.551Z,11.10
2018-03-31T03:49:07.582Z,11.10
2018-03-31T03:51:34.663Z,11.00
2018-03-31T03:54:01.732Z,11.00
2018-03-31T03:56:28.762Z,11.10
2018-03-31T03:58:56.597Z,11.10
2018-03-31T04:01:23.636Z,11.10
2018-03-31T04:03:50.706Z,11.20
2018-03-31T04:06:17.793Z,11.20
2018-03-31T04:08:44.879Z,11.20
2018-03-31T04:11:11.953Z,11.20
2018-03-31T04:13:39.053Z,11.20
2018-03-31T04:16:06.162Z,11.20
2018-03-31T04:18:33.237Z,11.10
2018-03-31T04:21:00.330Z,11.10
2018-03-31T04:23:27.347Z,11.00
2018-03-31T04:25:54.405Z,10.90
2018-03-31T04:28:21.464Z,11.00
2018-03-31T04:30:49.824Z,11.10
2018-03-31T04:33:16.874Z,11.00
2018-03-31T04:35:43.921Z,11.00
2018-03-31T04:38:10.968Z,11.00
2018-03-31T04:40:37.989Z,11.10
2018-03-31T04:43:05.032Z,11.00
2018-03-31T04:45:32.328Z,11.00
2018-03-31T04:48:00.131Z,11.00
2018-03-31T04:50:28.028Z,11.00
2018-03-31T04:52:55.096Z,11.10
2018-03-31T04:55:23.255Z,11.20
2018-03-31T04:57:50.490Z,11.10
2018-03-31T05:00:17.630Z,11.10
2018-03-31T05:02:44.713Z,11.10
2018-03-31T05:05:11.808Z,11.10
2018-03-31T05:07:39.636Z,11.20
2018-03-31T05:10:06.669Z,11.20
2018-03-31T05:12:33.740Z,11.20
2018-03-31T05:15:00.777Z,11.10
2018-03-31T05:17:27.896Z,11.00
2018-03-31T05:19:55.009Z,11.00
2018-03-31T05:22:22.105Z,11.10
2018-03-31T05:24:49.171Z,11.10
2018-03-31T05:27:16.235Z,11.10
2018-03-31T05:29:43.318Z,11.10
2018-03-31T05:32:10.360Z,11.20
2018-03-31T05:34:37.424Z,11.20
2018-03-31T05:37:04.888Z,11.20
2018-03-31T05:39:31.944Z,11.10
2018-03-31T05:41:59.170Z,11.10
2018-03-31T05:44:26.248Z,11.00
2018-03-31T05:46:53.500Z,11.00
2018-03-31T05:49:20.688Z,11.00
2018-03-31T05:51:47.744Z,11.00
2018-03-31T05:54:14.795Z,11.10
2018-03-31T05:56:41.880Z,11.20
2018-03-31T05:59:09.715Z,11.00
2018-03-31T06:01:37.015Z,11.00
2018-03-31T06:04:04.096Z,11.00
2018-03-31T06:06:31.181Z,11.00
2018-03-31T06:08:58.263Z,11.00
2018-03-31T06:11:25.361Z,11.00
2018-03-31T06:13:52.452Z,11.00
2018-03-31T06:16:19.544Z,11.10
2018-03-31T06:18:46.688Z,11.10
2018-03-31T06:21:13.838Z,11.10
2018-03-31T06:23:42.031Z,11.10
2018-03-31T06:26:09.118Z,11.10
2018-03-31T06:28:36.328Z,11.10
2018-03-31T06:31:03.362Z,11.10
2018-03-31T06:33:30.404Z,11.00
2018-03-31T06:35:57.458Z,11.10
2018-03-31T06:38:24.533Z,11.10
2018-03-31T06:40:51.590Z,11.10
2018-03-31T06:43:18.808Z,11.20
2018-03-31T06:45:51.357Z,11.20
2018-03-31T06:48:18.427Z,11.20
2018-03-31T06:50:45.452Z,11.20
2018-03-31T06:53:12.536Z,11.00
2018-03-31T06:55:39.588Z,11.10
2018-03-31T06:58:06.691Z,11.10
2018-03-31T07:00:33.982Z,11.20
2018-03-31T07:03:01.037Z,11.10
2018-03-31T07:05:28.086Z,11.10
2018-03-31T07:07:55.176Z,11.20
2018-03-31T07:10:22.223Z,11.20
2018-03-31T07:12:50.073Z,11.20
2018-03-31T07:15:17.172Z,11.20
2018-03-31T07:17:44.268Z,11.30
2018-03-31T07:20:12.115Z,11.20
2018-03-31T07:22:39.146Z,11.20
2018-03-31T07:25:06.255Z,11.20
2018-03-31T07:27:33.337Z,11.30
2018-03-31T07:30:00.412Z,11.30
2018-03-31T07:32:27.437Z,11.40
2018-03-31T07:34:54.770Z,11.40
2018-03-31T07:37:21.976Z,11.50
2018-03-31T07:39:49.166Z,11.50
2018-03-31T07:42:16.221Z,11.50
2018-03-31T07:44:48.546Z,11.40
2018-03-31T07:47:16.813Z,11.50
2018-03-31T07:49:44.234Z,11.60
2018-03-31T07:52:11.319Z,11.70
2018-03-31T07:54:38.377Z,11.60
2018-03-31T07:57:05.449Z,11.70
2018-03-31T07:59:33.573Z,11.60
2018-03-31T08:02:00.636Z,11.60
2018-03-31T08:04:27.693Z,11.60
2018-03-31T08:06:54.818Z,11.60
2018-03-31T08:09:22.226Z,11.60
2018-03-31T08:11:50.156Z,11.60
2018-03-31T08:14:17.231Z,11.70
2018-03-31T08:16:45.680Z,11.70
2018-03-31T08:19:12.725Z,11.80
2018-03-31T08:21:40.772Z,11.80
2018-03-31T08:24:07.845Z,11.90
2018-03-31T08:26:34.897Z,12.00
2018-03-31T08:29:01.987Z,12.10
2018-03-31T08:31:29.110Z,12.20
2018-03-31T08:33:56.228Z,12.20
2018-03-31T08:36:23.292Z,12.20
2018-03-31T08:38:50.387Z,12.20
2018-03-31T08:41:18.209Z,12.30
2018-03-31T08:43:45.364Z,12.30
2018-03-31T08:46:12.392Z,12.40
2018-03-31T08:48:40.148Z,12.40
2018-03-31T08:51:07.216Z,12.40
2018-03-31T08:53:34.350Z,12.30
2018-03-31T08:56:01.369Z,12.30
2018-03-31T08:58:28.618Z,12.20
2018-03-31T09:00:55.700Z,12.20
2018-03-31T09:03:22.729Z,12.10
2018-03-31T09:05:49.815Z,12.20
2018-03-31T09:08:17.113Z,12.30
2018-03-31T09:10:44.982Z,12.30
2018-03-31T09:13:12.419Z,12.30
2018-03-31T09:15:39.512Z,12.40
2018-03-31T09:18:06.594Z,12.30
2018-03-31T09:20:33.987Z,12.30
2018-03-31T09:23:01.106Z,12.30
2018-03-31T09:25:28.145Z,12.30
2018-03-31T09:27:55.211Z,12.30
2018-03-31T09:30:22.291Z,12.40
2018-03-31T09:32:49.353Z,12.30
2018-03-31T09:35:16.392Z,12.30
2018-03-31T09:37:43.594Z,12.40
2018-03-31T09:40:10.680Z,12.50
2018-03-31T09:42:37.773Z,12.40
2018-03-31T09:45:04.821Z,12.40
2018-03-31T09:47:31.903Z,12.50
2018-03-31T09:49:59.874Z,12.50
2018-03-31T09:52:26.956Z,12.40
2018-03-31T09:54:54.137Z,12.50
2018-03-31T09:57:21.372Z,12.50
2018-03-31T09:59:48.442Z,12.60
2018-03-31T10:02:15.513Z,12.60
2018-03-31T10:04:42.538Z,12.50
2018-03-31T10:07:09.599Z,12.50
2018-03-31T10:09:36.719Z,12.40
2018-03-31T10:12:03.769Z,12.40
2018-03-31T10:14:30.847Z,12.40
2018-03-31T10:16:59.398Z,12.40
2018-03-31T10:19:26.505Z,12.50
2018-03-31T10:21:53.561Z,12.50
2018-03-31T10:24:20.629Z,12.60
2018-03-31T10:26:47.677Z,12.60
2018-03-31T10:29:14.816Z,12.50
2018-03-31T10:31:42.313Z,12.50
2018-03-31T10:34:10.318Z,12.60
2018-03-31T10:36:37.353Z,12.60
2018-03-31T10:39:04.416Z,12.60
2018-03-31T10:41:31.449Z,12.60
2018-03-31T10:43:58.570Z,12.60
2018-03-31T10:46:25.608Z,12.70
2018-03-31T10:48:52.760Z,12.70
2018-03-31T10:51:19.908Z,12.80
2018-03-31T10:53:46.975Z,12.80
2018-03-31T10:56:14.021Z,12.80
2018-03-31T10:58:41.134Z,12.90
2018-03-31T11:01:08.204Z,12.80
2018-03-31T11:03:35.615Z,12.80
2018-03-31T11:06:03.689Z,12.80
2018-03-31T11:08:31.499Z,12.80
2018-03-31T11:10:58.555Z,12.70
2018-03-31T11:13:25.655Z,12.80
2018-03-31T11:15:52.698Z,12.80
2018-03-31T11:18:19.784Z,12.80
2018-03-31T11:20:46.904Z,12.90
2018-03-31T11:23:14.703Z,12.90
2018-03-31T11:25:41.878Z,12.90
2018-03-31T11:28:08.910Z,12.90
2018-03-31T11:30:35.977Z,12.90
2018-03-31T11:33:03.010Z,12.80
2018-03-31T11:35:30.071Z,12.80
2018-03-31T11:37:57.112Z,12.80
2018-03-31T11:40:24.207Z,12.80
2018-03-31T11:42:51.261Z,12.90
2018-03-31T11:45:19.168Z,12.90
2018-03-31T11:47:46.227Z,12.90
2018-03-31T11:50:13.268Z,12.90
2018-03-31T11:52:40.350Z,12.90
2018-03-31T11:55:07.380Z,12.90
2018-03-31T11:57:34.466Z,12.90
2018-03-31T12:00:02.269Z,13.10
2018-03-31T12:02:29.340Z,13.10
2018-03-31T12:04:56.465Z,13.10
2018-03-31T12:07:23.532Z,13.20
2018-03-31T12:09:50.559Z,13.20
2018-03-31T12:12:17.641Z,13.20
2018-03-31T12:14:44.858Z,13.20
2018-03-31T12:17:11.910Z,13.20
2018-03-31T12:19:38.952Z,13.30
2018-03-31T12:22:06.040Z,13.40
2018-03-31T12:24:33.106Z,13.50
2018-03-31T12:27:00.986Z,13.50
2018-03-31T12:29:28.045Z,13.50
2018-03-31T12:31:55.096Z,13.50
2018-03-31T12:34:22.149Z,13.50
2018-03-31T12:36:49.232Z,13.40
2018-03-31T12:39:16.330Z,13.50
2018-03-31T12:41:44.178Z,13.50
2018-03-31T12:44:11.247Z,13.50
2018-03-31T12:46:39.058Z,13.50
2018-03-31T12:49:06.144Z,13.40
2018-03-31T12:51:34.031Z,13.50
2018-03-31T12:54:01.084Z,13.50
2018-03-31T12:56:28.171Z,13.40
2018-03-31T12:58:55.329Z,13.40
2018-03-31T13:01:22.554Z,13.40
2018-03-31T13:03:49.740Z,13.30
2018-03-31T13:06:16.810Z,13.30
2018-03-31T13:08:44.665Z,13.40
2018-03-31T13:11:12.031Z,13.40
2018-03-31T13:13:39.856Z,13.40
2018-03-31T13:16:06.920Z,13.40
2018-03-31T13:18:33.946Z,13.50
2018-03-31T13:21:01.060Z,13.60
2018-03-31T13:23:28.085Z,13.60
2018-03-31T13:25:55.151Z,13.70
2018-03-31T13:28:22.359Z,13.80
2018-03-31T13:30:49.595Z,14.00
2018-03-31T13:33:16.660Z,14.10
2018-03-31T13:35:43.729Z,14.20
2018-03-31T13:38:10.949Z,14.30
2018-03-31T13:40:38.003Z,14.30
2018-03-31T13:43:05.064Z,14.40
2018-03-31T13:45:32.087Z,14.50
2018-03-31T13:47:59.139Z,14.50
2018-03-31T13:50:26.222Z,14.50
2018-03-31T13:52:53.499Z,14.50
2018-03-31T13:55:21.442Z,14.50
2018-03-31T13:57:48.450Z,14.50
2018-03-31T14:00:15.516Z,14.40
2018-03-31T14:02:42.633Z,14.40
2018-03-31T14:05:09.700Z,14.30
2018-03-31T14:07:36.813Z,14.20
2018-03-31T14:10:04.845Z,14.10
2018-03-31T14:12:32.728Z,14.10
2018-03-31T14:15:00.083Z,14.10
2018-03-31T14:17:27.075Z,14.10
2018-03-31T14:19:54.228Z,14.10
2018-03-31T14:22:21.293Z,14.20
2018-03-31T14:24:48.384Z,14.20
2018-03-31T14:27:16.169Z,14.20
2018-03-31T14:29:43.215Z,14.20
2018-03-31T14:32:10.389Z,14.20
2018-03-31T14:34:37.489Z,14.20
2018-03-31T14:37:04.535Z,14.20
2018-03-31T14:39:31.593Z,14.20
2018-03-31T14:41:58.931Z,14.10
2018-03-31T14:44:26.034Z,14.10
2018-03-31T14:46:53.100Z,14.10
2018-03-31T14:49:20.164Z,14.00
2018-03-31T14:51:47.198Z,14.00
2018-03-31T14:54:14.533Z,14.00
2018-03-31T14:56:41.632Z,14.00
2018-03-31T14:59:09.622Z,14.00
2018-03-31T15:01:36.696Z,14.00
2018-03-31T15:04:03.732Z,14.00
2018-03-31T15:06:30.800Z,14.00
2018-03-31T15:08:58.752Z,14.00
2018-03-31T15:11:25.774Z,14.00
2018-03-31T15:13:53.627Z,14.10
2018-03-31T15:16:20.972Z,14.10
2018-03-31T15:18:48.037Z,14.00
2018-03-31T15:21:15.082Z,14.10
2018-03-31T15:23:42.919Z,14.10
2018-03-31T15:26:09.950Z,14.10
2018-03-31T15:28:38.694Z,14.10
2018-03-31T15:31:06.581Z,14.10
2018-03-31T15:33:33.628Z,14.10
2018-03-31T15:36:00.717Z,14.10
2018-03-31T15:38:27.825Z,14.20
2018-03-31T15:40:54.868Z,14.20
2018-03-31T15:43:21.920Z,14.20
2018-03-31T15:45:49.013Z,14.20
2018-03-31T15:48:16.034Z,14.30
2018-03-31T15:50:43.269Z,14.30
2018-03-31T15:53:10.382Z,14.30
2018-03-31T15:55:37.419Z,14.30
2018-03-31T15:58:04.494Z,14.30
2018-03-31T16:00:31.542Z,14.40
2018-03-31T16:02:59.364Z,14.40
2018-03-31T16:05:26.394Z,14.40
2018-03-31T16:07:53.507Z,14.40
2018-03-31T16:10:20.570Z,14.50
2018-03-31T16:12:47.703Z,14.40
2018-03-31T16:15:14.792Z,14.40
2018-03-31T16:17:41.845Z,14.40
2018-03-31T16:20:08.917Z,14.40
2018-03-31T16:22:35.935Z,14.30
2018-03-31T16:25:03.003Z,14.30
2018-03-31T16:27:30.063Z,14.30
2018-03-31T16:29:57.087Z,14.30
2018-03-31T16:32:24.110Z,14.30
2018-03-31T16:34:51.176Z,14.30
2018-03-31T16:37:18.244Z,14.20
2018-03-31T16:39:45.268Z,14.20
2018-03-31T16:42:12.317Z,14.20
2018-03-31T16:44:39.338Z,14.10
2018-03-31T16:47:06.424Z,14.10
2018-03-31T16:49:33.455Z,14.10
2018-03-31T16:52:00.568Z,14.10
2018-03-31T16:54:27.629Z,14.10
2018-03-31T16:56:54.712Z,14.00
2018-03-31T16:59:21.820Z,14.00
2018-03-31T17:01:48.919Z,14.00
2018-03-31T17:04:15.957Z,13.90
2018-03-31T17:06:43.015Z,13.90
2018-03-31T17:09:10.072Z,13.90
2018-03-31T17:11:37.148Z,13.90
2018-03-31T17:14:04.211Z,13.90
2018-03-31T17:16:32.057Z,13.90
2018-03-31T17:18:59.129Z,13.90
2018-03-31T17:21:27.140Z,13.80
2018-03-31T17:23:54.346Z,13.80
2018-03-31T17:26:22.214Z,13.70
2018-03-31T17:28:50.127Z,13.60
2018-03-31T17:31:17.178Z,13.60
2018-03-31T17:33:44.283Z,13.60
2018-03-31T17:36:11.331Z,13.60
2018-03-31T17:38:39.203Z,13.60
2018-03-31T17:41:06.257Z,13.60
2018-03-31T17:43:33.751Z,13.60
2018-03-31T17:46:00.827Z,13.60
2018-03-31T17:48:28.011Z,13.60
2018-03-31T17:50:55.898Z,13.50
2018-03-31T17:53:22.951Z,13.50
2018-03-31T17:55:50.120Z,13.50
2018-03-31T17:58:17.196Z,13.50
2018-03-31T18:00:45.029Z,13.40
2018-03-31T18:03:12.176Z,13.40
2018-03-31T18:05:39.238Z,13.40
2018-03-31T18:08:06.294Z,13.30
2018-03-31T18:10:33.363Z,13.30
2018-03-31T18:13:00.462Z,13.30
2018-03-31T18:15:27.479Z,13.20
2018-03-31T18:17:54.501Z,13.20
2018-03-31T18:20:21.602Z,13.10
2018-03-31T18:22:48.654Z,13.00
2018-03-31T18:25:15.712Z,13.10
2018-03-31T18:27:42.806Z,12.90
2018-03-31T18:30:09.899Z,12.80
2018-03-31T18:32:36.997Z,12.80
2018-03-31T18:35:04.038Z,12.80
2018-03-31T18:37:31.087Z,12.70
2018-03-31T18:39:59.321Z,12.60
2018-03-31T18:42:26.383Z,12.60
2018-03-31T18:44:53.430Z,12.60
2018-03-31T18:47:20.480Z,12.50
2018-03-31T18:49:47.538Z,12.50
2018-03-31T18:52:14.606Z,12.40
2018-03-31T18:54:41.883Z,12.20
2018-03-31T18:57:08.937Z,12.20
2018-03-31T18:59:35.955Z,12.20
2018-03-31T19:02:03.830Z,12.20
2018-03-31T19:04:30.869Z,12.20
2018-03-31T19:06:58.711Z,12.10
2018-03-31T19:09:25.780Z,12.10
2018-03-31T19:11:52.864Z,12.00
2018-03-31T19:14:19.887Z,11.90
2018-03-31T19:16:52.497Z,11.90
2018-03-31T19:19:19.528Z,11.90
2018-03-31T19:21:46.587Z,11.90
2018-03-31T19:24:13.607Z,11.80
2018-03-31T19:26:41.425Z,11.80
2018-03-31T19:29:08.491Z,11.70
2018-03-31T19:31:35.688Z,11.70
2018-03-31T19:34:02.776Z,11.60
2018-03-31T19:36:29.792Z,11.50
2018-03-31T19:38:56.844Z,11.50
2018-03-31T19:41:23.926Z,11.50
2018-03-31T19:43:51.092Z,11.50
2018-03-31T19:46:18.238Z,11.60
2018-03-31T19:48:45.268Z,11.50
2018-03-31T19:51:12.334Z,11.50
2018-03-31T19:53:39.413Z,11.40
2018-03-31T19:56:07.232Z,11.30
2018-03-31T19:58:34.292Z,11.30
2018-03-31T20:01:01.304Z,11.40
2018-03-31T20:03:28.376Z,11.30
2018-03-31T20:05:55.423Z,11.30
2018-03-31T20:08:22.884Z,11.20
2018-03-31T20:10:49.958Z,11.10
2018-03-31T20:13:17.023Z,11.00
2018-03-31T20:15:44.895Z,10.80
2018-03-31T20:18:11.974Z,10.80
2018-03-31T20:20:39.027Z,10.90
2018-03-31T20:23:06.197Z,11.00
2018-03-31T20:25:33.872Z,10.90
2018-03-31T20:28:00.920Z,10.90
2018-03-31T20:30:27.977Z,11.00
2018-03-31T20:32:55.024Z,11.00
2018-03-31T20:35:22.063Z,10.80
2018-03-31T20:37:49.155Z,10.70
2018-03-31T20:40:16.478Z,10.60
2018-03-31T20:42:43.577Z,10.60
2018-03-31T20:45:10.639Z,10.60
2018-03-31T20:47:37.675Z,10.50
2018-03-31T20:50:04.724Z,10.60
2018-03-31T20:52:31.771Z,10.60
2018-03-31T20:54:58.796Z,10.60
2018-03-31T20:57:25.967Z,10.70
2018-03-31T20:59:53.029Z,10.60
2018-03-31T21:02:20.147Z,10.60
2018-03-31T21:04:47.287Z,10.60
2018-03-31T21:07:14.308Z,10.50
2018-03-31T21:09:41.359Z,10.40
2018-03-31T21:12:08.384Z,10.20
2018-03-31T21:14:35.484Z,10.20
2018-03-31T21:17:02.499Z,10.30
2018-03-31T21:19:29.553Z,10.30
2018-03-31T21:21:57.748Z,10.40
2018-03-31T21:24:25.755Z,10.40
2018-03-31T21:26:52.839Z,10.40
2018-03-31T21:29:19.887Z,10.20
2018-03-31T21:31:47.716Z,10.30
2018-03-31T21:34:14.735Z,10.20
2018-03-31T21:36:41.846Z,10.20
2018-03-31T21:39:08.938Z,10.10
2018-03-31T21:41:35.980Z,10.00
2018-03-31T21:44:03.082Z,10.00
2018-03-31T21:46:30.148Z,9.90
2018-03-31T21:48:57.160Z,9.90
2018-03-31T21:51:24.240Z,9.80
2018-03-31T21:53:52.040Z,9.60
2018-03-31T21:56:19.091Z,9.70
2018-03-31T21:58:46.163Z,9.70
2018-03-31T22:01:13.283Z,9.70
2018-03-31T22:03:40.302Z,9.70
2018-03-31T22:06:07.353Z,9.70
2018-03-31T22:08:35.152Z,9.50
2018-03-31T22:11:02.392Z,9.50
2018-03-31T22:13:35.152Z,9.50
2018-03-31T22:16:02.174Z,9.60
2018-03-31T22:18:29.209Z,9.50
2018-03-31T22:20:56.331Z,9.70
2018-03-31T22:23:23.347Z,9.90
2018-03-31T22:25:50.424Z,9.90
2018-03-31T22:28:17.457Z,9.70
2018-03-31T22:30:44.526Z,9.60
2018-03-31T22:33:11.831Z,9.60
2018-03-31T22:35:38.887Z,9.60
2018-03-31T22:38:05.925Z,9.60
2018-03-31T22:40:33.019Z,9.60
2018-03-31T22:43:00.073Z,9.70
2018-03-31T22:45:27.147Z,9.70
2018-03-31T22:47:54.194Z,9.80
2018-03-31T22:50:21.475Z,9.80
2018-03-31T22:52:48.535Z,9.70
2018-03-31T22:55:15.543Z,9.60
2018-03-31T22:57:42.587Z,9.60
2018-03-31T23:00:09.635Z,9.60
2018-03-31T23:02:36.667Z,9.70
2018-03-31T23:05:03.728Z,9.70
2018-03-31T23:07:30.769Z,9.60
2018-03-31T23:09:57.860Z,9.70
2018-03-31T23:12:24.875Z,9.70
2018-03-31T23:14:52.013Z,9.70
2018-03-31T23:17:19.169Z,9.70
2018-03-31T23:19:46.225Z,9.80
2018-03-31T23:22:13.276Z,9.80
2018-03-31T23:24:40.306Z,9.70
2018-03-31T23:27:07.402Z,9.70
2018-03-31T23:29:34.462Z,9.70
2018-03-31T23:32:02.288Z,9.70
2018-03-31T23:34:29.348Z,9.70
2018-03-31T23:36:56.433Z,9.70
2018-03-31T23:39:23.532Z,9.80
2018-03-31T23:41:50.583Z,9.80
2018-03-31T23:44:17.661Z,9.70
2018-03-31T23:46:45.489Z,9.70
2018-03-31T23:49:12.855Z,9.70
2018-03-31T23:51:39.884Z,9.70
2018-03-31T23:54:06.942Z,9.70
2018-03-31T23:56:33.959Z,9.60
2018-03-31T23:59:01.000Z,9.60
